Time;durP1;ratioP1;P1;durP2;ratioP2;P2;SDS_P1;SDS_P2;PMS_P1;PMS_P2;Temp;Humidity;BMP_temperature;BMP_pressure;BME280_temperature;BME280_humidity;BME280_pressure;Samples;Min_cycle;Max_cycle;Signal;HPM_P1;HPM_P2
2023/03/03 00:01:16;;;;;;;35.85;22.23;;;23.50;39.30;;;;;;6259298;27;83015;-64
2023/03/03 00:04:16;;;;;;;34.42;21.00;;;23.50;39.10;;;;;;6255967;27;83745;-65
2023/03/03 00:07:21;;;;;;;34.95;21.88;;;23.50;39.30;;;;;;6269991;27;83988;-65
2023/03/03 00:10:22;;;;;;;33.80;21.10;;;23.50;40.10;;;;;;6254354;27;83441;-65
2023/03/03 00:13:22;;;;;;;33.80;20.60;;;23.50;39.40;;;;;;6272643;27;84304;-66
2023/03/03 00:16:23;;;;;;;34.75;20.55;;;23.50;40.20;;;;;;6269363;27;83203;-65
2023/03/03 00:19:24;;;;;;;33.17;20.73;;;23.50;39.30;;;;;;6250797;27;82969;-65
2023/03/03 00:22:25;;;;;;;33.47;20.35;;;23.50;39.30;;;;;;6261455;27;84011;-65
2023/03/03 00:25:26;;;;;;;31.40;20.00;;;23.50;39.20;;;;;;6280357;27;82936;-64
2023/03/03 00:28:26;;;;;;;31.17;19.83;;;23.40;39.20;;;;;;6270416;27;83653;-66
2023/03/03 00:31:27;;;;;;;34.03;20.73;;;23.40;39.40;;;;;;6272005;27;84180;-68
2023/03/03 00:34:30;;;;;;;32.80;20.33;;;23.40;39.30;;;;;;6274218;27;84211;-67
2023/03/03 00:37:30;;;;;;;32.00;20.42;;;23.40;39.50;;;;;;6263782;27;85688;-66
2023/03/03 00:40:31;;;;;;;30.65;19.63;;;23.40;39.50;;;;;;6273808;27;85949;-64
2023/03/03 00:43:31;;;;;;;29.60;19.88;;;23.40;39.40;;;;;;6261395;27;84075;-64
2023/03/03 00:46:32;;;;;;;32.13;20.58;;;23.40;39.40;;;;;;6269895;27;83074;-63
2023/03/03 00:49:32;;;;;;;33.80;20.17;;;23.40;39.50;;;;;;6278721;27;83080;-63
2023/03/03 00:52:33;;;;;;;32.97;20.55;;;23.40;39.50;;;;;;6272623;27;84095;-65
2023/03/03 00:55:33;;;;;;;30.05;19.48;;;23.40;39.50;;;;;;6272685;27;83831;-59
2023/03/03 00:58:34;;;;;;;28.52;18.98;;;23.40;39.40;;;;;;6279172;27;83531;-56
2023/03/03 01:01:34;;;;;;;29.88;19.52;;;23.30;39.40;;;;;;6279874;27;84412;-58
2023/03/03 01:04:35;;;;;;;27.90;19.30;;;23.40;39.40;;;;;;6250778;28;84384;-58
2023/03/03 01:07:35;;;;;;;30.73;20.00;;;23.40;39.50;;;;;;6279193;27;83263;-57
2023/03/03 01:10:36;;;;;;;30.30;19.05;;;23.40;39.50;;;;;;6279908;27;83063;-57
2023/03/03 01:13:37;;;;;;;30.60;20.08;;;23.40;39.40;;;;;;6276483;27;83305;-58
2023/03/03 01:16:37;;;;;;;29.83;19.38;;;23.40;39.20;;;;;;6261798;27;85872;-59
2023/03/03 01:19:38;;;;;;;34.40;20.17;;;23.40;39.20;;;;;;6261188;27;84433;-57
2023/03/03 01:22:38;;;;;;;33.75;19.88;;;23.40;39.00;;;;;;6259919;27;85978;-59
2023/03/03 01:25:39;;;;;;;33.10;20.20;;;23.30;39.00;;;;;;6266242;27;82844;-57
2023/03/03 01:28:39;;;;;;;29.80;19.92;;;23.30;39.10;;;;;;6273570;27;83706;-58
2023/03/03 01:31:40;;;;;;;28.80;19.65;;;23.40;39.00;;;;;;6257022;27;85755;-57
2023/03/03 01:34:40;;;;;;;33.88;19.65;;;23.30;39.00;;;;;;6254874;27;86105;-56
2023/03/03 01:37:41;;;;;;;31.63;18.75;;;23.30;38.90;;;;;;6272527;27;84336;-58
2023/03/03 01:40:41;;;;;;;29.00;18.55;;;23.30;38.90;;;;;;6280577;27;83197;-57
2023/03/03 01:43:42;;;;;;;31.52;18.90;;;23.40;38.90;;;;;;6246767;27;85126;-57
2023/03/03 01:46:42;;;;;;;30.38;18.42;;;23.30;38.80;;;;;;6263362;27;83588;-56
2023/03/03 01:49:43;;;;;;;29.98;19.52;;;23.30;38.90;;;;;;6232101;27;85876;-56
2023/03/03 01:52:44;;;;;;;31.05;20.13;;;23.40;39.00;;;;;;6251985;27;82965;-69
2023/03/03 01:55:44;;;;;;;33.75;20.70;;;23.40;38.90;;;;;;6257691;27;83094;-69
2023/03/03 01:58:45;;;;;;;31.85;19.92;;;23.30;39.00;;;;;;6260992;27;84711;-68
2023/03/03 02:01:45;;;;;;;31.30;19.58;;;23.30;39.10;;;;;;6256666;27;86125;-68
2023/03/03 02:04:46;;;;;;;29.70;20.23;;;23.30;39.10;;;;;;6254231;27;83381;-64
2023/03/03 02:07:47;;;;;;;28.65;18.25;;;23.30;39.20;;;;;;6254672;27;82847;-66
2023/03/03 02:10:47;;;;;;;29.33;20.17;;;23.30;39.10;;;;;;6232294;27;83404;-67
2023/03/03 02:13:48;;;;;;;30.10;19.17;;;23.30;39.10;;;;;;6244479;27;84510;-67
2023/03/03 02:16:49;;;;;;;26.88;17.85;;;23.20;39.10;;;;;;6262220;27;83076;-68
2023/03/03 02:19:50;;;;;;;28.02;18.92;;;23.30;39.20;;;;;;6274032;27;83017;-66
2023/03/03 02:22:50;;;;;;;29.10;18.92;;;23.20;39.10;;;;;;6261548;27;83139;-67
2023/03/03 02:25:51;;;;;;;28.95;18.52;;;23.20;39.10;;;;;;6258646;27;85392;-67
2023/03/03 02:28:51;;;;;;;28.13;17.92;;;23.30;39.00;;;;;;6264216;27;83336;-67
2023/03/03 02:31:52;;;;;;;30.85;18.95;;;23.20;39.20;;;;;;6245219;28;84590;-65
2023/03/03 02:34:55;;;;;;;29.35;19.00;;;23.20;39.10;;;;;;6245114;28;86067;-63
2023/03/03 02:37:56;;;;;;;29.65;19.67;;;23.20;39.30;;;;;;6238640;27;84979;-64
2023/03/03 02:40:57;;;;;;;26.63;18.25;;;23.20;39.20;;;;;;6270749;27;83976;-64
2023/03/03 02:43:57;;;;;;;30.23;19.02;;;23.20;38.90;;;;;;6254726;27;84151;-66
2023/03/03 02:46:58;;;;;;;30.42;19.45;;;23.20;39.20;;;;;;6239336;27;86133;-65
2023/03/03 02:49:59;;;;;;;27.80;18.88;;;23.20;39.20;;;;;;6264746;27;83580;-64
2023/03/03 02:53:00;;;;;;;31.13;20.33;;;23.20;39.00;;;;;;6275405;27;83162;-65
2023/03/03 02:56:00;;;;;;;29.73;19.85;;;23.20;38.80;;;;;;6251688;27;86133;-65
2023/03/03 02:59:01;;;;;;;28.33;18.48;;;23.20;39.00;;;;;;6273937;27;82802;-63
2023/03/03 03:02:06;;;;;;;26.02;17.92;;;23.20;38.90;;;;;;6240709;27;86212;-62
2023/03/03 03:05:07;;;;;;;29.77;19.00;;;23.20;39.30;;;;;;6263048;27;84549;-61
2023/03/03 03:08:08;;;;;;;24.65;17.45;;;23.20;39.10;;;;;;6273571;27;83281;-63
2023/03/03 03:11:09;;;;;;;30.55;18.90;;;23.20;39.20;;;;;;6250234;27;88641;-61
2023/03/03 03:14:09;;;;;;;32.67;20.25;;;23.20;39.00;;;;;;6253570;27;83078;-63
2023/03/03 03:17:11;;;;;;;29.88;18.48;;;23.20;39.00;;;;;;6267059;27;83126;-63
2023/03/03 03:20:12;;;;;;;28.17;18.60;;;23.20;39.00;;;;;;6254979;27;86348;-63
2023/03/03 03:23:13;;;;;;;28.15;19.02;;;23.20;39.00;;;;;;6240805;27;86532;-63
2023/03/03 03:26:13;;;;;;;29.40;18.27;;;23.20;39.00;;;;;;6246894;27;84145;-66
2023/03/03 03:29:14;;;;;;;30.65;19.90;;;23.20;38.90;;;;;;6266921;27;83346;-65
2023/03/03 03:32:15;;;;;;;29.45;18.55;;;23.20;39.00;;;;;;6248333;27;84831;-65
2023/03/03 03:35:16;;;;;;;29.08;18.20;;;23.20;38.90;;;;;;6267270;27;85232;-67
2023/03/03 03:38:17;;;;;;;28.30;18.75;;;23.20;38.70;;;;;;6242853;27;86254;-67
2023/03/03 03:41:18;;;;;;;30.17;19.45;;;23.20;38.60;;;;;;6230986;27;85744;-67
2023/03/03 03:44:19;;;;;;;29.00;19.27;;;23.20;38.50;;;;;;6251172;27;84307;-67
2023/03/03 03:47:19;;;;;;;27.73;19.08;;;23.20;38.60;;;;;;6273655;27;83317;-66
2023/03/03 03:50:20;;;;;;;29.67;19.40;;;23.20;38.70;;;;;;6254353;27;85118;-65
2023/03/03 03:53:21;;;;;;;27.65;19.35;;;23.10;39.40;;;;;;6254331;27;83355;-64
2023/03/03 03:56:22;;;;;;;28.63;18.77;;;23.10;38.90;;;;;;6253841;27;86748;-65
2023/03/03 03:59:26;;;;;;;29.98;19.33;;;23.10;38.90;;;;;;6253884;27;84504;-57
2023/03/03 04:02:27;;;;;;;29.73;18.02;;;23.20;38.90;;;;;;6254298;27;85722;-56
2023/03/03 04:05:28;;;;;;;30.35;19.15;;;23.10;39.10;;;;;;6252458;27;84594;-55
2023/03/03 04:08:29;;;;;;;31.08;18.95;;;23.10;38.90;;;;;;6254116;27;86143;-55
2023/03/03 04:11:30;;;;;;;27.35;18.55;;;23.10;38.90;;;;;;6253097;27;85901;-56
2023/03/03 04:14:31;;;;;;;28.02;19.30;;;23.10;38.70;;;;;;6245136;27;86260;-57
2023/03/03 04:17:32;;;;;;;32.58;19.35;;;23.10;38.90;;;;;;6254689;27;85907;-60
2023/03/03 04:20:33;;;;;;;32.33;20.13;;;23.10;38.70;;;;;;6253693;27;85831;-59
2023/03/03 04:23:35;;;;;;;31.55;20.10;;;23.10;38.80;;;;;;6240463;27;86077;-59
2023/03/03 04:26:36;;;;;;;31.20;19.60;;;23.10;38.90;;;;;;6239207;27;86242;-59
2023/03/03 04:29:38;;;;;;;28.77;18.63;;;23.10;38.80;;;;;;6240193;27;85172;-59
2023/03/03 04:32:39;;;;;;;28.05;19.08;;;23.10;39.00;;;;;;6270475;27;85835;-60
2023/03/03 04:35:42;;;;;;;27.63;18.95;;;23.10;38.80;;;;;;6231853;27;86434;-61
2023/03/03 04:38:43;;;;;;;28.27;18.30;;;23.10;38.80;;;;;;6236039;27;85773;-60
2023/03/03 04:41:43;;;;;;;29.88;19.42;;;23.10;38.60;;;;;;6246971;27;84009;-60
2023/03/03 04:44:44;;;;;;;29.25;19.15;;;23.00;38.80;;;;;;6272865;27;83371;-58
2023/03/03 04:47:45;;;;;;;28.92;18.35;;;23.10;38.80;;;;;;6230635;27;86191;-60
2023/03/03 04:50:46;;;;;;;28.13;19.92;;;23.00;38.50;;;;;;6237703;27;86628;-60
2023/03/03 04:53:47;;;;;;;30.80;18.88;;;23.00;38.40;;;;;;6253451;27;85947;-60
2023/03/03 04:56:47;;;;;;;27.65;19.02;;;23.00;38.50;;;;;;6240711;27;84783;-54
2023/03/03 04:59:49;;;;;;;31.48;20.55;;;23.00;38.60;;;;;;6252866;27;85510;-56
2023/03/03 05:02:49;;;;;;;30.98;19.83;;;23.00;38.50;;;;;;6272364;27;82842;-56
2023/03/03 05:05:50;;;;;;;33.13;20.15;;;23.00;38.50;;;;;;6235893;27;84990;-56
2023/03/03 05:08:50;;;;;;;29.98;18.38;;;23.00;38.40;;;;;;6259204;27;84922;-56
2023/03/03 05:11:51;;;;;;;31.60;20.00;;;23.00;38.50;;;;;;6238333;27;85215;-65
2023/03/03 05:14:52;;;;;;;31.27;19.98;;;23.00;38.30;;;;;;6263004;27;83014;-56
2023/03/03 05:17:55;;;;;;;30.30;20.60;;;23.00;38.10;;;;;;6262020;27;83478;-54
2023/03/03 05:20:55;;;;;;;29.48;19.73;;;23.00;38.60;;;;;;6264118;27;83251;-55
2023/03/03 05:23:56;;;;;;;29.98;18.60;;;23.00;38.70;;;;;;6268795;27;83424;-54
2023/03/03 05:26:56;;;;;;;30.33;19.52;;;23.00;38.20;;;;;;6257479;27;84064;-52
2023/03/03 05:29:57;;;;;;;30.20;19.25;;;23.10;38.80;;;;;;6261358;27;84073;-54
2023/03/03 05:32:58;;;;;;;29.20;18.92;;;23.10;39.30;;;;;;6274651;27;84974;-54
2023/03/03 05:35:58;;;;;;;30.85;21.05;;;23.00;39.00;;;;;;6261870;27;83833;-55
2023/03/03 05:38:59;;;;;;;32.22;20.05;;;23.00;38.90;;;;;;6246034;27;84604;-53
2023/03/03 05:41:59;;;;;;;32.00;20.25;;;23.00;39.20;;;;;;6253966;27;84970;-56
2023/03/03 05:45:00;;;;;;;33.42;20.70;;;23.00;39.60;;;;;;6262694;27;83285;-59
2023/03/03 05:48:02;;;;;;;32.92;21.02;;;23.00;39.50;;;;;;6261248;27;84629;-55
2023/03/03 05:51:02;;;;;;;33.88;19.77;;;22.90;39.30;;;;;;6261264;27;83825;-53
2023/03/03 05:54:03;;;;;;;37.88;21.83;;;22.90;39.80;;;;;;6257336;27;85978;-57
2023/03/03 05:57:03;;;;;;;33.55;20.58;;;22.90;39.70;;;;;;6264620;27;83027;-54
2023/03/03 06:00:04;;;;;;;34.65;20.88;;;22.90;39.40;;;;;;6264110;27;84642;-56
2023/03/03 06:03:12;;;;;;;37.20;21.45;;;22.90;39.30;;;;;;6265570;27;84185;-52
2023/03/03 06:06:15;;;;;;;39.40;22.15;;;22.90;39.80;;;;;;6254437;27;83651;-57
2023/03/03 06:09:17;;;;;;;38.55;23.80;;;22.90;39.70;;;;;;6265777;27;83020;-60
2023/03/03 06:12:18;;;;;;;37.83;24.88;;;23.00;40.00;;;;;;6244531;27;84314;-60
2023/03/03 06:15:18;;;;;;;38.13;22.70;;;22.90;40.00;;;;;;6179594;27;89306;-61
2023/03/03 06:18:19;;;;;;;37.45;23.70;;;23.00;40.10;;;;;;6256749;27;89481;-59
2023/03/03 06:21:20;;;;;;;37.55;23.15;;;23.00;40.40;;;;;;6265721;27;84303;-59
2023/03/03 06:24:23;;;;;;;37.60;23.92;;;22.90;40.30;;;;;;6229172;27;83715;-59
2023/03/03 06:27:23;;;;;;;40.28;24.75;;;23.00;40.00;;;;;;6247317;27;82875;-60
2023/03/03 06:30:25;;;;;;;37.47;23.73;;;23.00;40.50;;;;;;6254413;27;83850;-60
2023/03/03 06:33:26;;;;;;;38.22;24.88;;;23.00;41.00;;;;;;6260480;27;83090;-61
2023/03/03 06:36:26;;;;;;;43.03;26.50;;;22.90;41.40;;;;;;6259479;27;83018;-59
2023/03/03 06:39:27;;;;;;;42.00;26.23;;;23.00;41.20;;;;;;6253399;27;83706;-61
2023/03/03 06:42:28;;;;;;;39.40;25.33;;;23.00;40.90;;;;;;6257755;27;84376;-60
2023/03/03 06:45:28;;;;;;;46.50;27.00;;;23.00;40.90;;;;;;6255469;27;83341;-58
2023/03/03 06:48:29;;;;;;;47.47;27.25;;;23.00;40.80;;;;;;6254363;27;83381;-60
2023/03/03 06:51:29;;;;;;;49.10;28.60;;;22.90;40.50;;;;;;6259775;27;84246;-61
2023/03/03 06:54:30;;;;;;;46.17;28.50;;;23.00;40.90;;;;;;6262124;27;83976;-60
2023/03/03 06:57:30;;;;;;;64.45;32.88;;;23.00;41.30;;;;;;6263888;27;85385;-60
2023/03/03 07:00:31;;;;;;;103.00;58.72;;;23.00;41.60;;;;;;6263778;27;84477;-60
2023/03/03 07:03:31;;;;;;;107.25;61.22;;;23.00;42.00;;;;;;6273861;27;82999;-63
2023/03/03 07:06:32;;;;;;;111.05;64.40;;;23.00;42.20;;;;;;6272308;27;84286;-64
2023/03/03 07:09:32;;;;;;;121.78;70.38;;;23.00;42.70;;;;;;6272969;27;82952;-63
2023/03/03 07:12:33;;;;;;;116.25;69.10;;;23.00;43.00;;;;;;6266040;27;83486;-64
2023/03/03 07:15:34;;;;;;;114.68;66.05;;;23.00;43.80;;;;;;6264688;27;83704;-65
2023/03/03 07:18:34;;;;;;;112.07;67.25;;;23.10;43.30;;;;;;6259014;27;84221;-62
2023/03/03 07:21:35;;;;;;;129.70;69.38;;;23.10;43.60;;;;;;6270842;27;83243;-62
2023/03/03 07:24:35;;;;;;;162.52;97.28;;;23.10;45.10;;;;;;6265155;27;85157;-63
2023/03/03 07:27:36;;;;;;;219.05;131.18;;;23.10;44.10;;;;;;6265006;27;84017;-65
2023/03/03 07:30:37;;;;;;;207.90;118.40;;;23.20;45.70;;;;;;6260410;27;87716;-64
2023/03/03 07:33:37;;;;;;;237.02;151.13;;;23.20;44.70;;;;;;6263439;27;85625;-63
2023/03/03 07:36:38;;;;;;;244.95;155.13;;;23.20;45.60;;;;;;6259540;27;86113;-63
2023/03/03 07:39:38;;;;;;;208.93;129.77;;;23.20;45.30;;;;;;6255363;27;88523;-62
2023/03/03 07:42:39;;;;;;;204.15;121.80;;;23.10;44.00;;;;;;6252980;27;88908;-63
2023/03/03 07:45:54;;;;;;;159.35;105.30;;;23.10;42.70;;;;;;6233405;27;86506;-62
2023/03/03 07:48:55;;;;;;;149.68;92.78;;;23.10;41.50;;;;;;6237033;27;87171;-62
2023/03/03 07:51:59;;;;;;;111.57;71.78;;;23.10;40.40;;;;;;6253985;27;85259;-62
2023/03/03 07:54:59;;;;;;;107.05;68.60;;;23.10;38.40;;;;;;6257253;27;83209;-63
2023/03/03 07:58:00;;;;;;;102.47;62.38;;;23.00;39.00;;;;;;6261892;27;84186;-62
2023/03/03 08:01:00;;;;;;;97.93;59.83;;;23.00;37.70;;;;;;6259912;27;84750;-64
2023/03/03 08:04:01;;;;;;;87.07;54.17;;;22.90;37.10;;;;;;6261742;27;84301;-62
2023/03/03 08:07:01;;;;;;;87.80;52.40;;;22.90;37.20;;;;;;6252267;27;84377;-63
2023/03/03 08:10:02;;;;;;;80.90;49.33;;;22.90;37.50;;;;;;6248699;27;86188;-65
2023/03/03 08:13:02;;;;;;;73.88;45.47;;;22.90;37.40;;;;;;6252616;27;85042;-61
2023/03/03 08:16:03;;;;;;;74.38;44.45;;;23.00;37.60;;;;;;6254746;27;85799;-65
2023/03/03 08:19:03;;;;;;;65.40;41.42;;;23.00;37.80;;;;;;6253116;27;84643;-61
2023/03/03 08:22:04;;;;;;;68.30;43.58;;;23.00;37.80;;;;;;6256766;27;83459;-61
2023/03/03 08:25:04;;;;;;;155.48;79.90;;;23.00;38.10;;;;;;6259716;27;83301;-62
2023/03/03 08:28:05;;;;;;;234.57;116.55;;;23.00;38.10;;;;;;6256439;27;83236;-61
2023/03/03 08:31:05;;;;;;;341.63;163.35;;;23.10;38.10;;;;;;6255598;27;90295;-62
2023/03/03 08:34:06;;;;;;;472.98;225.30;;;23.10;38.10;;;;;;6256989;27;88450;-61
2023/03/03 08:37:06;;;;;;;543.33;267.70;;;23.10;38.10;;;;;;6257631;27;85605;-59
2023/03/03 08:40:07;;;;;;;493.90;239.00;;;23.20;38.10;;;;;;6258190;27;86309;-59
2023/03/03 08:43:07;;;;;;;422.90;203.80;;;23.10;38.10;;;;;;6229885;27;85932;-58
2023/03/03 08:46:10;;;;;;;412.38;189.95;;;23.20;38.10;;;;;;6255464;27;85907;-57
2023/03/03 08:49:11;;;;;;;375.00;178.70;;;23.20;38.20;;;;;;6246999;27;85377;-59
2023/03/03 08:52:11;;;;;;;380.55;183.13;;;23.20;38.30;;;;;;6250504;27;87969;-60
2023/03/03 08:55:12;;;;;;;393.77;193.27;;;23.20;38.40;;;;;;6252299;27;86363;-62
2023/03/03 08:58:12;;;;;;;452.92;214.55;;;23.20;38.40;;;;;;6230611;27;87444;-63
2023/03/03 09:01:13;;;;;;;473.10;233.38;;;23.20;38.30;;;;;;6247836;27;87542;-61
2023/03/03 09:04:13;;;;;;;501.30;240.77;;;23.30;38.30;;;;;;6246987;27;85634;-62
2023/03/03 09:07:14;;;;;;;500.45;246.60;;;23.30;38.30;;;;;;6247517;27;87335;-63
2023/03/03 09:10:14;;;;;;;525.85;274.88;;;23.30;38.20;;;;;;6229820;27;85633;-62
2023/03/03 09:13:15;;;;;;;513.72;260.17;;;23.30;38.20;;;;;;6251802;27;86503;-61
2023/03/03 09:16:15;;;;;;;455.52;220.68;;;23.30;38.30;;;;;;6258626;27;88070;-60
2023/03/03 09:19:16;;;;;;;421.88;202.85;;;23.30;39.10;;;;;;6259347;27;87132;-61
2023/03/03 09:22:16;;;;;;;377.55;178.02;;;23.30;38.30;;;;;;6260306;27;86965;-60
2023/03/03 09:25:17;;;;;;;341.40;160.18;;;23.30;38.30;;;;;;6255716;27;87738;-60
2023/03/03 09:28:18;;;;;;;306.35;148.25;;;23.30;38.40;;;;;;6254508;27;85894;-61
2023/03/03 09:31:18;;;;;;;291.73;137.80;;;23.30;38.60;;;;;;6254346;27;86560;-60
2023/03/03 09:34:19;;;;;;;272.27;128.77;;;23.30;38.50;;;;;;6263560;27;85658;-61
2023/03/03 09:37:21;;;;;;;243.02;120.53;;;23.30;38.40;;;;;;6260922;27;85850;-60
2023/03/03 09:40:21;;;;;;;235.18;113.22;;;23.30;39.00;;;;;;6253920;27;85955;-60
2023/03/03 09:43:22;;;;;;;201.05;106.75;;;23.30;38.30;;;;;;6254236;27;85249;-61
2023/03/03 09:46:23;;;;;;;211.52;102.55;;;23.40;38.30;;;;;;6248108;27;86231;-62
2023/03/03 09:49:25;;;;;;;191.05;94.75;;;23.40;38.10;;;;;;6255239;27;86769;-62
2023/03/03 09:52:25;;;;;;;177.35;89.82;;;23.40;37.90;;;;;;6254678;27;85300;-62
2023/03/03 09:55:26;;;;;;;167.07;85.38;;;23.30;38.00;;;;;;6260061;27;83437;-61
2023/03/03 09:58:26;;;;;;;161.77;84.95;;;23.30;38.00;;;;;;6241365;27;86851;-60
2023/03/03 10:01:27;;;;;;;153.18;77.25;;;23.30;38.00;;;;;;6267698;27;83427;-60
2023/03/03 10:04:27;;;;;;;141.20;74.40;;;23.30;38.00;;;;;;6260585;27;83360;-58
2023/03/03 10:07:28;;;;;;;143.18;73.40;;;23.30;38.10;;;;;;6261572;27;84258;-52
2023/03/03 10:10:29;;;;;;;127.13;68.68;;;23.30;38.80;;;;;;6271847;27;89523;-51
2023/03/03 10:13:30;;;;;;;119.60;65.10;;;23.30;38.00;;;;;;6258348;27;83098;-53
2023/03/03 10:16:31;;;;;;;110.82;60.72;;;23.30;38.00;;;;;;6260856;27;83668;-51
2023/03/03 10:19:33;;;;;;;119.45;59.85;;;23.30;37.80;;;;;;6261100;27;83555;-52
2023/03/03 10:22:33;;;;;;;107.75;56.80;;;23.30;37.70;;;;;;6274647;27;83560;-52
2023/03/03 10:25:34;;;;;;;101.82;55.97;;;23.30;37.70;;;;;;6271565;27;83308;-52
2023/03/03 10:28:34;;;;;;;97.88;54.70;;;23.40;37.80;;;;;;6262100;27;89328;-50
2023/03/03 10:31:35;;;;;;;103.50;55.08;;;23.30;37.90;;;;;;6255619;27;84503;-51
2023/03/03 10:34:35;;;;;;;93.43;51.85;;;23.30;37.90;;;;;;6273522;27;83240;-51
2023/03/03 10:37:36;;;;;;;94.70;51.00;;;23.30;38.00;;;;;;6248937;27;83074;-51
2023/03/03 10:40:36;;;;;;;91.32;48.53;;;23.30;38.20;;;;;;6285480;27;83548;-53
2023/03/03 10:43:37;;;;;;;85.10;46.67;;;23.30;38.10;;;;;;6262673;27;83067;-51
2023/03/03 10:46:37;;;;;;;83.38;46.72;;;23.30;38.00;;;;;;6274168;27;83160;-60
2023/03/03 10:49:38;;;;;;;84.38;44.40;;;23.30;38.10;;;;;;6256839;27;84488;-50
2023/03/03 10:52:39;;;;;;;81.38;44.38;;;23.30;38.50;;;;;;6274606;27;82700;-52
2023/03/03 10:55:39;;;;;;;82.03;44.75;;;23.40;38.50;;;;;;6274717;27;84523;-52
2023/03/03 10:58:40;;;;;;;76.82;41.80;;;23.30;38.40;;;;;;6272321;27;83170;-53
2023/03/03 11:01:42;;;;;;;73.22;40.65;;;23.30;38.40;;;;;;6235593;27;86894;-59
2023/03/03 11:04:43;;;;;;;71.28;40.40;;;23.40;38.70;;;;;;6252502;27;87377;-60
2023/03/03 11:07:44;;;;;;;70.70;39.67;;;23.40;38.60;;;;;;6259681;27;87166;-62
2023/03/03 11:10:44;;;;;;;65.53;38.35;;;23.40;38.70;;;;;;6265789;27;82912;-60
2023/03/03 11:13:46;;;;;;;72.90;41.00;;;23.40;38.70;;;;;;6255251;27;83261;-60
2023/03/03 11:16:47;;;;;;;63.42;38.22;;;23.40;38.80;;;;;;6255611;27;85188;-61
2023/03/03 11:19:48;;;;;;;65.40;37.60;;;23.40;38.70;;;;;;6247665;27;88362;-60
2023/03/03 11:22:49;;;;;;;66.57;38.08;;;23.40;38.70;;;;;;6241359;27;85036;-60
2023/03/03 11:25:51;;;;;;;68.00;38.33;;;23.40;38.70;;;;;;6241026;27;88226;-60
2023/03/03 11:28:52;;;;;;;57.40;35.22;;;23.40;39.10;;;;;;6258007;27;85238;-60
2023/03/03 11:31:53;;;;;;;68.85;38.00;;;23.40;39.00;;;;;;6257391;27;87761;-59
2023/03/03 11:34:53;;;;;;;62.88;37.22;;;23.30;39.40;;;;;;6229925;27;84000;-59
2023/03/03 11:37:54;;;;;;;59.65;35.75;;;23.40;39.40;;;;;;6237296;27;84085;-60
2023/03/03 11:40:54;;;;;;;62.17;37.13;;;23.30;39.40;;;;;;6263471;27;83201;-62
2023/03/03 11:43:55;;;;;;;62.60;37.08;;;23.30;39.80;;;;;;6253641;27;83534;-65
2023/03/03 11:46:55;;;;;;;63.45;36.65;;;23.30;40.50;;;;;;6251591;27;85484;-64
2023/03/03 11:49:56;;;;;;;61.35;35.25;;;23.30;40.80;;;;;;6257300;27;85086;-63
2023/03/03 11:52:56;;;;;;;55.58;33.83;;;23.30;41.10;;;;;;6260948;27;83867;-63
2023/03/03 11:55:57;;;;;;;60.35;36.03;;;23.30;41.20;;;;;;6255211;27;85348;-64
2023/03/03 11:58:57;;;;;;;56.55;34.80;;;23.30;40.80;;;;;;6260297;27;84494;-55
2023/03/03 12:01:58;;;;;;;58.35;34.15;;;23.30;40.60;;;;;;6257224;27;84612;-56
2023/03/03 12:04:58;;;;;;;63.80;37.78;;;23.30;40.30;;;;;;6267871;27;83611;-58
2023/03/03 12:07:59;;;;;;;62.15;38.10;;;23.30;40.20;;;;;;6257882;27;83652;-55
2023/03/03 12:10:59;;;;;;;71.25;39.00;;;23.30;40.20;;;;;;6268217;27;83494;-57
2023/03/03 12:14:00;;;;;;;60.08;36.38;;;23.30;40.10;;;;;;6247501;27;83454;-55
2023/03/03 12:17:00;;;;;;;66.75;39.75;;;23.30;40.00;;;;;;6266230;27;83856;-54
2023/03/03 12:20:01;;;;;;;65.85;40.50;;;23.30;40.00;;;;;;6265778;27;83312;-53
2023/03/03 12:23:01;;;;;;;67.03;38.53;;;23.30;39.70;;;;;;6266269;27;83901;-53
2023/03/03 12:26:02;;;;;;;65.07;39.60;;;23.30;39.70;;;;;;6261121;27;84586;-54
2023/03/03 12:29:03;;;;;;;60.67;37.65;;;23.30;39.60;;;;;;6265966;27;83027;-55
2023/03/03 12:32:03;;;;;;;68.68;40.72;;;23.30;39.40;;;;;;6246367;27;90485;-55
2023/03/03 12:35:04;;;;;;;71.20;40.58;;;23.20;39.10;;;;;;6265259;27;83529;-53
2023/03/03 12:38:05;;;;;;;66.72;39.33;;;23.20;39.10;;;;;;6255543;27;83637;-56
2023/03/03 12:41:05;;;;;;;69.47;40.15;;;23.20;38.90;;;;;;6264702;27;87956;-53
2023/03/03 12:44:06;;;;;;;64.40;38.60;;;23.20;38.90;;;;;;6261863;27;83479;-55
2023/03/03 12:47:06;;;;;;;67.43;39.10;;;23.20;38.70;;;;;;6266609;27;83358;-55
2023/03/03 12:50:07;;;;;;;65.95;38.40;;;23.20;38.60;;;;;;6265549;27;82805;-54
2023/03/03 12:53:07;;;;;;;61.05;36.75;;;23.20;38.50;;;;;;6257748;27;88040;-55
2023/03/03 12:56:08;;;;;;;65.13;37.30;;;23.20;38.60;;;;;;6250747;27;83426;-53
2023/03/03 12:59:10;;;;;;;57.88;34.15;;;23.10;38.40;;;;;;6251377;27;88742;-59
2023/03/03 13:02:11;;;;;;;58.25;34.95;;;23.20;38.40;;;;;;6255676;27;83665;-54
2023/03/03 13:05:11;;;;;;;58.53;33.92;;;23.20;38.10;;;;;;6257474;27;83676;-55
2023/03/03 13:08:12;;;;;;;55.53;34.00;;;23.20;38.20;;;;;;6251254;27;85790;-57
2023/03/03 13:11:12;;;;;;;56.78;33.35;;;23.10;38.10;;;;;;6259289;27;83631;-64
2023/03/03 13:14:13;;;;;;;56.50;31.92;;;23.10;38.00;;;;;;6272050;27;85327;-62
2023/03/03 13:17:14;;;;;;;55.75;33.03;;;23.10;38.20;;;;;;6222468;27;88806;-63
2023/03/03 13:20:14;;;;;;;51.25;31.85;;;23.10;38.60;;;;;;6244142;27;83549;-63
2023/03/03 13:23:15;;;;;;;54.00;29.95;;;23.10;38.50;;;;;;6241617;27;88292;-64
2023/03/03 13:26:15;;;;;;;48.72;28.80;;;23.10;38.60;;;;;;6246523;27;84051;-62
2023/03/03 13:29:16;;;;;;;53.00;29.15;;;23.20;38.70;;;;;;6216172;27;86440;-64
2023/03/03 13:32:16;;;;;;;56.00;27.45;;;23.10;38.60;;;;;;6241971;27;85207;-64
2023/03/03 13:35:17;;;;;;;47.67;26.60;;;23.20;38.50;;;;;;6246874;27;83971;-63
2023/03/03 13:38:18;;;;;;;44.15;26.58;;;23.20;38.60;;;;;;6238649;27;83548;-64
2023/03/03 13:41:18;;;;;;;44.65;25.45;;;23.10;38.50;;;;;;6239365;27;88373;-65
2023/03/03 13:44:19;;;;;;;45.28;25.10;;;23.20;38.70;;;;;;6249554;27;84108;-63
2023/03/03 13:47:19;;;;;;;42.58;24.65;;;23.10;38.80;;;;;;6247154;27;86717;-55
2023/03/03 13:50:20;;;;;;;44.15;26.75;;;23.10;38.60;;;;;;6248398;27;83052;-55
2023/03/03 13:53:20;;;;;;;43.65;24.63;;;23.10;38.70;;;;;;6253598;27;83831;-55
2023/03/03 13:56:21;;;;;;;42.20;25.10;;;23.10;39.00;;;;;;6255436;27;83169;-56
2023/03/03 13:59:21;;;;;;;39.17;23.38;;;23.10;39.20;;;;;;6254903;27;84480;-53
2023/03/03 14:02:24;;;;;;;38.63;23.08;;;23.10;39.60;;;;;;6256292;27;83782;-56
2023/03/03 14:05:25;;;;;;;40.28;22.48;;;23.10;39.60;;;;;;6224828;27;84523;-57
2023/03/03 14:08:25;;;;;;;56.53;30.50;;;23.10;39.50;;;;;;6256225;27;83815;-59
2023/03/03 14:11:26;;;;;;;81.50;42.70;;;23.10;39.60;;;;;;6250925;27;85511;-57
2023/03/03 14:14:26;;;;;;;164.88;70.18;;;23.10;39.70;;;;;;6256495;27;83375;-59
2023/03/03 14:17:27;;;;;;;216.55;97.97;;;23.20;40.10;;;;;;6262374;27;83491;-59
2023/03/03 14:20:28;;;;;;;229.40;109.72;;;23.10;40.20;;;;;;6260206;27;83363;-60
2023/03/03 14:23:28;;;;;;;301.67;135.45;;;23.20;40.60;;;;;;6265983;27;85527;-57
2023/03/03 14:26:29;;;;;;;307.65;142.93;;;23.10;39.90;;;;;;6258959;27;85414;-59
2023/03/03 14:29:29;;;;;;;342.77;152.25;;;23.20;39.70;;;;;;6261707;27;89481;-58
2023/03/03 14:32:30;;;;;;;338.33;155.80;;;23.20;39.60;;;;;;6263435;27;85399;-60
2023/03/03 14:35:30;;;;;;;428.65;195.30;;;23.20;39.80;;;;;;6254029;27;88195;-54
2023/03/03 14:38:31;;;;;;;374.40;177.23;;;23.20;39.90;;;;;;6253231;27;85833;-58
2023/03/03 14:41:31;;;;;;;470.73;224.55;;;23.20;40.40;;;;;;6270486;27;85635;-59
2023/03/03 14:44:32;;;;;;;498.25;236.70;;;23.20;40.90;;;;;;6258315;27;86267;-57
2023/03/03 14:47:33;;;;;;;437.05;210.68;;;23.20;40.20;;;;;;6257933;27;89496;-57
2023/03/03 14:50:34;;;;;;;416.52;196.18;;;23.20;40.30;;;;;;6249504;27;86218;-57
2023/03/03 14:53:34;;;;;;;370.67;184.57;;;23.20;40.10;;;;;;6259553;27;88112;-58
2023/03/03 14:56:35;;;;;;;368.42;168.73;;;23.20;39.90;;;;;;6263909;27;85895;-56
2023/03/03 14:59:35;;;;;;;326.35;152.68;;;23.20;39.70;;;;;;6249658;27;86957;-58
2023/03/03 15:02:36;;;;;;;286.30;136.38;;;23.20;39.30;;;;;;6252914;27;86614;-60
2023/03/03 15:05:36;;;;;;;272.77;127.10;;;23.20;39.40;;;;;;6252145;27;85715;-59
2023/03/03 15:08:37;;;;;;;256.27;120.55;;;23.30;39.10;;;;;;6253042;27;85413;-59
2023/03/03 15:11:37;;;;;;;232.15;111.40;;;23.20;40.00;;;;;;6252383;27;85655;-59